sensor_id;sensor_type;location;lat;lon;timestamp;pressure;altitude;pressure_sealevel;temperature;humidity
47670;BME280;33408;52.062;11.722;2022-08-24T00:02:00;101527.34;;;16.89;100.00
47670;BME280;33408;52.062;11.722;2022-08-24T00:04:27;101517.53;;;16.95;100.00
47670;BME280;33408;52.062;11.722;2022-08-24T00:06:54;101515.22;;;16.86;100.00
47670;BME280;33408;52.062;11.722;2022-08-24T00:09:21;101519.06;;;16.74;100.00
47670;BME280;33408;52.062;11.722;2022-08-24T00:11:47;101516.13;;;16.84;100.00
47670;BME280;33408;52.062;11.722;2022-08-24T00:14:14;101521.16;;;16.91;100.00
47670;BME280;33408;52.062;11.722;2022-08-24T00:16:42;101515.63;;;17.01;100.00
47670;BME280;33408;52.062;11.722;2022-08-24T00:19:08;101515.22;;;16.85;100.00
47670;BME280;33408;52.062;11.722;2022-08-24T00:21:35;101507.59;;;16.77;100.00
47670;BME280;33408;52.062;11.722;2022-08-24T00:24:02;101509.75;;;16.64;100.00
47670;BME280;33408;52.062;11.722;2022-08-24T00:26:29;101510.78;;;16.30;100.00
47670;BME280;33408;52.062;11.722;2022-08-24T00:28:56;101510.47;;;16.41;100.00
47670;BME280;33408;52.062;11.722;2022-08-24T00:31:23;101509.00;;;16.02;100.00
47670;BME280;33408;52.062;11.722;2022-08-24T00:33:51;101507.00;;;16.11;100.00
47670;BME280;33408;52.062;11.722;2022-08-24T00:36:17;101514.91;;;16.39;100.00
47670;BME280;33408;52.062;11.722;2022-08-24T00:38:44;101508.44;;;15.91;100.00
47670;BME280;33408;52.062;11.722;2022-08-24T00:41:12;101512.72;;;15.94;100.00
47670;BME280;33408;52.062;11.722;2022-08-24T00:43:49;101519.06;;;15.85;100.00
47670;BME280;33408;52.062;11.722;2022-08-24T00:46:19;101506.56;;;15.96;100.00
47670;BME280;33408;52.062;11.722;2022-08-24T00:48:53;101511.09;;;16.19;100.00
47670;BME280;33408;52.062;11.722;2022-08-24T00:51:26;101506.41;;;16.31;100.00
47670;BME280;33408;52.062;11.722;2022-08-24T00:53:56;101503.66;;;16.35;100.00
47670;BME280;33408;52.062;11.722;2022-08-24T00:56:28;101514.69;;;16.45;100.00
47670;BME280;33408;52.062;11.722;2022-08-24T00:59:01;101509.66;;;16.09;100.00
47670;BME280;33408;52.062;11.722;2022-08-24T01:01:30;101505.38;;;16.07;100.00
47670;BME280;33408;52.062;11.722;2022-08-24T01:03:58;101502.00;;;16.33;100.00
47670;BME280;33408;52.062;11.722;2022-08-24T01:06:25;101498.09;;;16.46;100.00
47670;BME280;33408;52.062;11.722;2022-08-24T01:08:52;101502.22;;;16.25;100.00
47670;BME280;33408;52.062;11.722;2022-08-24T01:11:22;101497.44;;;16.10;100.00
47670;BME280;33408;52.062;11.722;2022-08-24T01:13:51;101507.88;;;15.80;100.00
47670;BME280;33408;52.062;11.722;2022-08-24T01:16:18;101506.72;;;15.57;100.00
47670;BME280;33408;52.062;11.722;2022-08-24T01:19:01;101506.81;;;15.54;100.00
47670;BME280;33408;52.062;11.722;2022-08-24T01:21:33;101509.69;;;15.43;100.00
47670;BME280;33408;52.062;11.722;2022-08-24T01:24:09;101508.88;;;15.41;100.00
47670;BME280;33408;52.062;11.722;2022-08-24T01:26:40;101512.00;;;15.56;100.00
47670;BME280;33408;52.062;11.722;2022-08-24T01:29:12;101518.59;;;15.69;100.00
47670;BME280;33408;52.062;11.722;2022-08-24T01:31:39;101511.34;;;15.80;100.00
47670;BME280;33408;52.062;11.722;2022-08-24T01:34:06;101512.38;;;15.75;100.00
47670;BME280;33408;52.062;11.722;2022-08-24T01:36:35;101516.22;;;15.60;100.00
47670;BME280;33408;52.062;11.722;2022-08-24T01:39:09;101517.25;;;15.54;100.00
47670;BME280;33408;52.062;11.722;2022-08-24T01:41:36;101514.56;;;15.57;100.00
47670;BME280;33408;52.062;11.722;2022-08-24T01:44:03;101511.50;;;15.41;100.00
47670;BME280;33408;52.062;11.722;2022-08-24T01:46:30;101518.19;;;15.52;100.00
47670;BME280;33408;52.062;11.722;2022-08-24T01:48:57;101518.69;;;15.66;100.00
47670;BME280;33408;52.062;11.722;2022-08-24T01:51:24;101521.94;;;15.74;100.00
47670;BME280;33408;52.062;11.722;2022-08-24T01:53:50;101520.00;;;15.82;100.00
47670;BME280;33408;52.062;11.722;2022-08-24T01:56:19;101530.66;;;15.75;100.00
47670;BME280;33408;52.062;11.722;2022-08-24T01:58:47;101531.41;;;15.80;100.00
47670;BME280;33408;52.062;11.722;2022-08-24T02:01:15;101531.56;;;15.74;100.00
47670;BME280;33408;52.062;11.722;2022-08-24T02:03:42;101534.97;;;15.76;100.00
47670;BME280;33408;52.062;11.722;2022-08-24T02:06:09;101537.00;;;15.64;100.00
47670;BME280;33408;52.062;11.722;2022-08-24T02:08:36;101536.78;;;15.74;100.00
47670;BME280;33408;52.062;11.722;2022-08-24T02:11:04;101534.66;;;14.85;100.00
47670;BME280;33408;52.062;11.722;2022-08-24T02:13:34;101530.78;;;15.01;100.00
47670;BME280;33408;52.062;11.722;2022-08-24T02:16:02;101532.13;;;15.18;100.00
47670;BME280;33408;52.062;11.722;2022-08-24T02:18:30;101538.59;;;15.03;100.00
47670;BME280;33408;52.062;11.722;2022-08-24T02:20:57;101537.13;;;14.50;100.00
47670;BME280;33408;52.062;11.722;2022-08-24T02:23:24;101550.84;;;14.58;100.00
47670;BME280;33408;52.062;11.722;2022-08-24T02:25:50;101544.06;;;14.51;100.00
47670;BME280;33408;52.062;11.722;2022-08-24T02:28:17;101546.44;;;14.21;100.00
47670;BME280;33408;52.062;11.722;2022-08-24T02:30:45;101561.34;;;14.15;100.00
47670;BME280;33408;52.062;11.722;2022-08-24T02:33:12;101552.19;;;14.37;100.00
47670;BME280;33408;52.062;11.722;2022-08-24T02:35:39;101548.00;;;14.30;100.00
47670;BME280;33408;52.062;11.722;2022-08-24T02:38:06;101545.06;;;14.46;100.00
47670;BME280;33408;52.062;11.722;2022-08-24T02:40:33;101548.41;;;14.52;100.00
47670;BME280;33408;52.062;11.722;2022-08-24T02:43:00;101555.44;;;14.47;100.00
47670;BME280;33408;52.062;11.722;2022-08-24T02:45:26;101556.56;;;14.37;100.00
47670;BME280;33408;52.062;11.722;2022-08-24T02:47:54;101554.84;;;14.34;100.00
47670;BME280;33408;52.062;11.722;2022-08-24T02:50:21;101561.53;;;14.49;100.00
47670;BME280;33408;52.062;11.722;2022-08-24T02:52:48;101556.38;;;14.87;100.00
47670;BME280;33408;52.062;11.722;2022-08-24T02:55:17;101553.75;;;14.87;100.00
47670;BME280;33408;52.062;11.722;2022-08-24T02:57:44;101549.03;;;15.03;100.00
47670;BME280;33408;52.062;11.722;2022-08-24T03:00:14;101547.22;;;15.05;100.00
47670;BME280;33408;52.062;11.722;2022-08-24T03:02:41;101556.00;;;15.02;100.00
47670;BME280;33408;52.062;11.722;2022-08-24T03:05:09;101553.66;;;14.91;100.00
47670;BME280;33408;52.062;11.722;2022-08-24T03:07:36;101549.84;;;15.05;100.00
47670;BME280;33408;52.062;11.722;2022-08-24T03:10:05;101556.56;;;15.15;100.00
47670;BME280;33408;52.062;11.722;2022-08-24T03:12:32;101548.59;;;15.20;100.00
47670;BME280;33408;52.062;11.722;2022-08-24T03:14:59;101545.53;;;15.38;100.00
47670;BME280;33408;52.062;11.722;2022-08-24T03:17:26;101545.50;;;15.40;100.00
47670;BME280;33408;52.062;11.722;2022-08-24T03:19:55;101543.00;;;15.35;100.00
47670;BME280;33408;52.062;11.722;2022-08-24T03:22:23;101538.91;;;15.25;100.00
47670;BME280;33408;52.062;11.722;2022-08-24T03:24:49;101539.78;;;14.89;100.00
47670;BME280;33408;52.062;11.722;2022-08-24T03:27:16;101542.88;;;14.68;100.00
47670;BME280;33408;52.062;11.722;2022-08-24T03:29:43;101541.53;;;14.48;100.00
47670;BME280;33408;52.062;11.722;2022-08-24T03:32:09;101543.00;;;14.19;100.00
47670;BME280;33408;52.062;11.722;2022-08-24T03:34:36;101541.06;;;13.85;100.00
47670;BME280;33408;52.062;11.722;2022-08-24T03:37:03;101549.59;;;13.94;100.00
47670;BME280;33408;52.062;11.722;2022-08-24T03:39:31;101549.03;;;14.21;100.00
47670;BME280;33408;52.062;11.722;2022-08-24T03:41:57;101558.38;;;14.33;100.00
47670;BME280;33408;52.062;11.722;2022-08-24T03:44:24;101555.63;;;14.41;100.00
47670;BME280;33408;52.062;11.722;2022-08-24T03:46:51;101558.47;;;14.29;100.00
47670;BME280;33408;52.062;11.722;2022-08-24T03:49:18;101557.78;;;14.19;100.00
47670;BME280;33408;52.062;11.722;2022-08-24T03:51:45;101559.22;;;14.34;100.00
47670;BME280;33408;52.062;11.722;2022-08-24T03:54:13;101557.19;;;14.48;100.00
47670;BME280;33408;52.062;11.722;2022-08-24T03:56:41;101556.88;;;14.65;100.00
47670;BME280;33408;52.062;11.722;2022-08-24T03:59:08;101562.00;;;14.68;100.00
47670;BME280;33408;52.062;11.722;2022-08-24T04:01:36;101568.53;;;14.46;100.00
47670;BME280;33408;52.062;11.722;2022-08-24T04:04:04;101569.97;;;14.62;100.00
47670;BME280;33408;52.062;11.722;2022-08-24T04:06:31;101573.97;;;14.77;100.00
47670;BME280;33408;52.062;11.722;2022-08-24T04:08:57;101565.94;;;14.86;100.00
47670;BME280;33408;52.062;11.722;2022-08-24T04:11:25;101568.69;;;14.80;100.00
47670;BME280;33408;52.062;11.722;2022-08-24T04:13:55;101573.97;;;14.77;100.00
47670;BME280;33408;52.062;11.722;2022-08-24T04:16:22;101568.69;;;14.80;100.00
47670;BME280;33408;52.062;11.722;2022-08-24T04:18:50;101570.25;;;14.87;100.00
47670;BME280;33408;52.062;11.722;2022-08-24T04:21:19;101567.63;;;14.89;100.00
47670;BME280;33408;52.062;11.722;2022-08-24T04:23:46;101571.78;;;14.98;100.00
47670;BME280;33408;52.062;11.722;2022-08-24T04:26:13;101575.22;;;15.00;100.00
47670;BME280;33408;52.062;11.722;2022-08-24T04:28:40;101579.50;;;15.02;100.00
47670;BME280;33408;52.062;11.722;2022-08-24T04:31:08;101579.38;;;15.07;100.00
47670;BME280;33408;52.062;11.722;2022-08-24T04:33:35;101582.09;;;15.04;100.00
47670;BME280;33408;52.062;11.722;2022-08-24T04:36:06;101583.56;;;15.14;100.00
47670;BME280;33408;52.062;11.722;2022-08-24T04:38:34;101584.69;;;14.65;100.00
47670;BME280;33408;52.062;11.722;2022-08-24T04:41:03;101582.28;;;14.54;100.00
47670;BME280;33408;52.062;11.722;2022-08-24T04:43:30;101592.63;;;14.57;100.00
47670;BME280;33408;52.062;11.722;2022-08-24T04:45:56;101601.13;;;14.25;100.00
47670;BME280;33408;52.062;11.722;2022-08-24T04:48:25;101597.66;;;14.26;100.00
47670;BME280;33408;52.062;11.722;2022-08-24T04:50:52;101607.78;;;14.41;100.00
47670;BME280;33408;52.062;11.722;2022-08-24T04:53:18;101609.03;;;14.67;100.00
47670;BME280;33408;52.062;11.722;2022-08-24T04:55:47;101610.47;;;14.80;100.00
47670;BME280;33408;52.062;11.722;2022-08-24T04:58:15;101606.69;;;15.65;100.00
47670;BME280;33408;52.062;11.722;2022-08-24T05:00:43;101608.34;;;17.50;100.00
47670;BME280;33408;52.062;11.722;2022-08-24T05:03:10;101603.41;;;18.87;90.15
47670;BME280;33408;52.062;11.722;2022-08-24T05:05:40;101603.06;;;19.39;79.94
47670;BME280;33408;52.062;11.722;2022-08-24T05:08:07;101608.59;;;19.76;75.35
47670;BME280;33408;52.062;11.722;2022-08-24T05:10:36;101602.22;;;20.21;73.33
47670;BME280;33408;52.062;11.722;2022-08-24T05:13:03;101607.44;;;20.99;70.08
47670;BME280;33408;52.062;11.722;2022-08-24T05:15:30;101603.63;;;21.76;65.07
47670;BME280;33408;52.062;11.722;2022-08-24T05:17:58;101606.63;;;22.84;61.81
47670;BME280;33408;52.062;11.722;2022-08-24T05:20:24;101609.03;;;22.73;60.58
47670;BME280;33408;52.062;11.722;2022-08-24T05:22:52;101617.91;;;22.72;61.03
47670;BME280;33408;52.062;11.722;2022-08-24T05:25:20;101608.34;;;22.69;60.98
47670;BME280;33408;52.062;11.722;2022-08-24T05:27:47;101614.47;;;22.70;61.19
47670;BME280;33408;52.062;11.722;2022-08-24T05:30:14;101619.94;;;23.15;59.84
47670;BME280;33408;52.062;11.722;2022-08-24T05:32:40;101606.00;;;23.57;58.71
47670;BME280;33408;52.062;11.722;2022-08-24T05:35:07;101613.63;;;23.92;58.26
47670;BME280;33408;52.062;11.722;2022-08-24T05:37:34;101609.25;;;23.77;58.19
47670;BME280;33408;52.062;11.722;2022-08-24T05:40:04;101608.69;;;24.58;56.31
47670;BME280;33408;52.062;11.722;2022-08-24T05:42:31;101608.97;;;24.68;55.80
47670;BME280;33408;52.062;11.722;2022-08-24T05:44:58;101613.22;;;25.65;53.58
47670;BME280;33408;52.062;11.722;2022-08-24T05:47:25;101619.03;;;25.44;53.55
47670;BME280;33408;52.062;11.722;2022-08-24T05:49:52;101610.03;;;26.24;52.31
47670;BME280;33408;52.062;11.722;2022-08-24T05:52:18;101613.72;;;24.90;56.70
47670;BME280;33408;52.062;11.722;2022-08-24T05:54:52;101611.94;;;24.90;59.06
47670;BME280;33408;52.062;11.722;2022-08-24T05:57:22;101614.97;;;24.14;61.41
47670;BME280;33408;52.062;11.722;2022-08-24T05:59:50;101610.13;;;24.35;60.95
47670;BME280;33408;52.062;11.722;2022-08-24T06:02:18;101619.88;;;23.91;60.67
47670;BME280;33408;52.062;11.722;2022-08-24T06:04:45;101617.16;;;23.62;64.31
47670;BME280;33408;52.062;11.722;2022-08-24T06:07:12;101613.94;;;23.57;65.62
47670;BME280;33408;52.062;11.722;2022-08-24T06:09:40;101618.72;;;24.53;62.78
47670;BME280;33408;52.062;11.722;2022-08-24T06:12:08;101608.53;;;24.32;62.26
47670;BME280;33408;52.062;11.722;2022-08-24T06:14:37;101618.00;;;24.08;64.26
47670;BME280;33408;52.062;11.722;2022-08-24T06:17:05;101620.44;;;23.52;66.26
47670;BME280;33408;52.062;11.722;2022-08-24T06:19:33;101612.78;;;24.35;63.73
47670;BME280;33408;52.062;11.722;2022-08-24T06:22:00;101623.66;;;23.26;67.44
47670;BME280;33408;52.062;11.722;2022-08-24T06:24:27;101631.16;;;23.34;69.84
47670;BME280;33408;52.062;11.722;2022-08-24T06:27:07;101626.53;;;23.07;73.44
47670;BME280;33408;52.062;11.722;2022-08-24T06:29:48;101628.03;;;22.95;75.80
47670;BME280;33408;52.062;11.722;2022-08-24T06:32:14;101624.69;;;22.11;80.15
47670;BME280;33408;52.062;11.722;2022-08-24T06:34:41;101632.66;;;22.27;81.14
47670;BME280;33408;52.062;11.722;2022-08-24T06:37:08;101630.25;;;21.89;84.89
47670;BME280;33408;52.062;11.722;2022-08-24T06:39:34;101627.50;;;22.08;85.69
47670;BME280;33408;52.062;11.722;2022-08-24T06:42:01;101637.78;;;21.96;85.77
47670;BME280;33408;52.062;11.722;2022-08-24T06:44:27;101639.56;;;21.78;88.00
47670;BME280;33408;52.062;11.722;2022-08-24T06:46:55;101638.63;;;21.97;88.92
47670;BME280;33408;52.062;11.722;2022-08-24T06:49:22;101640.03;;;21.69;89.94
47670;BME280;33408;52.062;11.722;2022-08-24T06:51:49;101639.88;;;21.90;90.60
47670;BME280;33408;52.062;11.722;2022-08-24T06:54:18;101636.84;;;21.80;91.16
47670;BME280;33408;52.062;11.722;2022-08-24T06:56:45;101641.50;;;22.43;88.60
47670;BME280;33408;52.062;11.722;2022-08-24T06:59:11;101643.00;;;22.47;87.85
47670;BME280;33408;52.062;11.722;2022-08-24T07:01:38;101650.22;;;22.10;88.76
47670;BME280;33408;52.062;11.722;2022-08-24T07:04:06;101656.94;;;21.82;89.96
47670;BME280;33408;52.062;11.722;2022-08-24T07:06:33;101648.69;;;22.06;91.39
47670;BME280;33408;52.062;11.722;2022-08-24T07:09:00;101646.41;;;22.33;91.09
47670;BME280;33408;52.062;11.722;2022-08-24T07:11:27;101649.50;;;22.24;91.21
47670;BME280;33408;52.062;11.722;2022-08-24T07:13:53;101643.47;;;22.22;91.36
47670;BME280;33408;52.062;11.722;2022-08-24T07:16:20;101647.22;;;22.67;89.99
47670;BME280;33408;52.062;11.722;2022-08-24T07:18:47;101646.63;;;23.10;87.06
47670;BME280;33408;52.062;11.722;2022-08-24T07:21:14;101648.91;;;23.00;87.62
47670;BME280;33408;52.062;11.722;2022-08-24T07:23:43;101651.38;;;22.55;89.54
47670;BME280;33408;52.062;11.722;2022-08-24T07:26:12;101648.06;;;22.68;90.57
47670;BME280;33408;52.062;11.722;2022-08-24T07:28:39;101642.38;;;22.75;89.53
47670;BME280;33408;52.062;11.722;2022-08-24T07:31:06;101648.59;;;22.90;90.31
47670;BME280;33408;52.062;11.722;2022-08-24T07:33:34;101652.31;;;23.02;89.33
47670;BME280;33408;52.062;11.722;2022-08-24T07:36:00;101655.69;;;23.22;88.90
47670;BME280;33408;52.062;11.722;2022-08-24T07:38:28;101654.47;;;23.27;87.95
47670;BME280;33408;52.062;11.722;2022-08-24T07:40:55;101658.16;;;23.25;89.02
47670;BME280;33408;52.062;11.722;2022-08-24T07:43:22;101653.34;;;23.47;86.47
47670;BME280;33408;52.062;11.722;2022-08-24T07:45:48;101643.66;;;23.77;85.15
47670;BME280;33408;52.062;11.722;2022-08-24T07:48:16;101642.97;;;24.18;82.31
47670;BME280;33408;52.062;11.722;2022-08-24T07:50:43;101644.03;;;23.71;83.89
47670;BME280;33408;52.062;11.722;2022-08-24T07:53:09;101646.38;;;24.06;83.23
47670;BME280;33408;52.062;11.722;2022-08-24T07:55:37;101642.22;;;24.30;81.04
47670;BME280;33408;52.062;11.722;2022-08-24T07:58:04;101645.16;;;24.40;79.37
47670;BME280;33408;52.062;11.722;2022-08-24T08:00:31;101650.34;;;24.27;79.73
47670;BME280;33408;52.062;11.722;2022-08-24T08:02:58;101656.31;;;24.60;77.96
47670;BME280;33408;52.062;11.722;2022-08-24T08:05:26;101657.63;;;24.52;76.94
47670;BME280;33408;52.062;11.722;2022-08-24T08:07:53;101650.06;;;24.46;76.63
47670;BME280;33408;52.062;11.722;2022-08-24T08:10:19;101659.41;;;24.52;75.68
47670;BME280;33408;52.062;11.722;2022-08-24T08:12:48;101651.47;;;24.37;78.51
47670;BME280;33408;52.062;11.722;2022-08-24T08:15:15;101653.75;;;24.15;79.06
47670;BME280;33408;52.062;11.722;2022-08-24T08:17:42;101658.69;;;24.64;77.17
47670;BME280;33408;52.062;11.722;2022-08-24T08:20:11;101650.59;;;24.80;76.21
47670;BME280;33408;52.062;11.722;2022-08-24T08:22:38;101650.31;;;24.85;74.61
47670;BME280;33408;52.062;11.722;2022-08-24T08:25:22;101650.72;;;25.06;72.13
47670;BME280;33408;52.062;11.722;2022-08-24T08:27:50;101660.94;;;24.85;73.39
47670;BME280;33408;52.062;11.722;2022-08-24T08:30:17;101654.34;;;25.32;71.25
47670;BME280;33408;52.062;11.722;2022-08-24T08:32:43;101653.91;;;24.84;71.65
47670;BME280;33408;52.062;11.722;2022-08-24T08:35:10;101662.34;;;24.76;72.91
47670;BME280;33408;52.062;11.722;2022-08-24T08:37:37;101664.69;;;24.95;72.60
47670;BME280;33408;52.062;11.722;2022-08-24T08:40:07;101660.75;;;25.15;70.24
47670;BME280;33408;52.062;11.722;2022-08-24T08:42:47;101656.69;;;25.37;68.52
47670;BME280;33408;52.062;11.722;2022-08-24T08:45:34;101653.44;;;25.19;67.09
47670;BME280;33408;52.062;11.722;2022-08-24T08:54:12;101657.38;;;25.66;62.51
47670;BME280;33408;52.062;11.722;2022-08-24T08:56:48;101653.16;;;25.76;61.72
47670;BME280;33408;52.062;11.722;2022-08-24T08:59:34;101653.66;;;25.56;63.22
47670;BME280;33408;52.062;11.722;2022-08-24T09:02:15;101652.19;;;24.97;64.12
47670;BME280;33408;52.062;11.722;2022-08-24T09:04:58;101654.47;;;24.89;65.47
